sensor_id;sensor_type;location;lat;lon;timestamp;pressure;altitude;pressure_sealevel;temperature;humidity
21781;BME280;52576;53.614;9.894;2023-05-07T00:01:14;101917.28;;;8.58;79.83
21781;BME280;52576;53.614;9.894;2023-05-07T00:03:19;101913.97;;;8.54;79.94
21781;BME280;52576;53.614;9.894;2023-05-07T00:05:23;101914.03;;;8.53;79.99
21781;BME280;52576;53.614;9.894;2023-05-07T00:07:26;101910.63;;;8.50;80.14
21781;BME280;52576;53.614;9.894;2023-05-07T00:09:31;101916.75;;;8.49;80.28
21781;BME280;52576;53.614;9.894;2023-05-07T00:11:34;101915.00;;;8.50;80.43
21781;BME280;52576;53.614;9.894;2023-05-07T00:13:38;101915.00;;;8.50;80.42
21781;BME280;52576;53.614;9.894;2023-05-07T00:15:41;101915.00;;;8.50;80.38
21781;BME280;52576;53.614;9.894;2023-05-07T00:17:44;101922.00;;;8.49;80.44
21781;BME280;52576;53.614;9.894;2023-05-07T00:19:48;101915.84;;;8.50;80.53
21781;BME280;52576;53.614;9.894;2023-05-07T00:21:51;101916.72;;;8.51;80.45
21781;BME280;52576;53.614;9.894;2023-05-07T00:23:55;101914.16;;;8.49;80.37
21781;BME280;52576;53.614;9.894;2023-05-07T00:25:59;101919.38;;;8.49;80.58
21781;BME280;52576;53.614;9.894;2023-05-07T00:28:03;101920.28;;;8.48;80.32
21781;BME280;52576;53.614;9.894;2023-05-07T00:30:07;101915.97;;;8.47;80.31
21781;BME280;52576;53.614;9.894;2023-05-07T00:32:10;101915.97;;;8.47;80.27
21781;BME280;52576;53.614;9.894;2023-05-07T00:34:14;101909.91;;;8.47;80.42
21781;BME280;52576;53.614;9.894;2023-05-07T00:36:17;101908.19;;;8.46;80.27
21781;BME280;52576;53.614;9.894;2023-05-07T00:38:20;101913.41;;;8.46;80.42
21781;BME280;52576;53.614;9.894;2023-05-07T00:40:24;101916.09;;;8.44;80.43
21781;BME280;52576;53.614;9.894;2023-05-07T00:42:28;101914.34;;;8.45;80.53
21781;BME280;52576;53.614;9.894;2023-05-07T00:44:31;101917.78;;;8.45;80.38
21781;BME280;52576;53.614;9.894;2023-05-07T00:46:35;101913.34;;;8.47;80.49
21781;BME280;52576;53.614;9.894;2023-05-07T00:48:38;101908.13;;;8.47;80.42
21781;BME280;52576;53.614;9.894;2023-05-07T00:50:42;101907.22;;;8.48;80.60
21781;BME280;52576;53.614;9.894;2023-05-07T00:52:45;101909.78;;;8.50;80.35
21781;BME280;52576;53.614;9.894;2023-05-07T00:54:48;101899.31;;;8.50;80.36
21781;BME280;52576;53.614;9.894;2023-05-07T00:56:52;101905.41;;;8.50;80.34
21781;BME280;52576;53.614;9.894;2023-05-07T00:58:56;101905.41;;;8.50;80.31
21781;BME280;52576;53.614;9.894;2023-05-07T01:01:00;101907.09;;;8.52;80.28
21781;BME280;52576;53.614;9.894;2023-05-07T01:03:03;101901.03;;;8.51;80.37
21781;BME280;52576;53.614;9.894;2023-05-07T01:05:11;101900.13;;;8.52;80.12
21781;BME280;52576;53.614;9.894;2023-05-07T01:07:16;101898.34;;;8.53;80.32
21781;BME280;52576;53.614;9.894;2023-05-07T01:09:19;101894.88;;;8.52;80.36
21781;BME280;52576;53.614;9.894;2023-05-07T01:11:23;101897.50;;;8.52;80.44
21781;BME280;52576;53.614;9.894;2023-05-07T01:13:27;101898.34;;;8.53;80.14
21781;BME280;52576;53.614;9.894;2023-05-07T01:15:32;101899.22;;;8.53;80.33
21781;BME280;52576;53.614;9.894;2023-05-07T01:17:36;101896.59;;;8.53;80.28
21781;BME280;52576;53.614;9.894;2023-05-07T01:19:42;101899.16;;;8.55;80.29
21781;BME280;52576;53.614;9.894;2023-05-07T01:21:47;101895.63;;;8.56;80.41
21781;BME280;52576;53.614;9.894;2023-05-07T01:23:54;101894.72;;;8.57;80.39
21781;BME280;52576;53.614;9.894;2023-05-07T01:25:58;101894.72;;;8.57;80.10
21781;BME280;52576;53.614;9.894;2023-05-07T01:28:03;101896.47;;;8.56;80.16
21781;BME280;52576;53.614;9.894;2023-05-07T01:30:10;101891.31;;;8.55;80.20
21781;BME280;52576;53.614;9.894;2023-05-07T01:32:19;101893.00;;;8.56;80.29
21781;BME280;52576;53.614;9.894;2023-05-07T01:34:25;101886.09;;;8.55;80.16
21781;BME280;52576;53.614;9.894;2023-05-07T01:36:29;101892.16;;;8.55;80.13
21781;BME280;52576;53.614;9.894;2023-05-07T01:38:33;101886.09;;;8.55;79.99
21781;BME280;52576;53.614;9.894;2023-05-07T01:40:38;101888.69;;;8.55;79.94
21781;BME280;52576;53.614;9.894;2023-05-07T01:42:43;101889.59;;;8.54;79.54
21781;BME280;52576;53.614;9.894;2023-05-07T01:44:46;101891.44;;;8.52;79.62
21781;BME280;52576;53.614;9.894;2023-05-07T01:46:49;101889.72;;;8.50;79.58
21781;BME280;52576;53.614;9.894;2023-05-07T01:48:53;101897.63;;;8.49;79.55
21781;BME280;52576;53.614;9.894;2023-05-07T01:50:56;101892.34;;;8.50;79.62
21781;BME280;52576;53.614;9.894;2023-05-07T01:53:01;101902.00;;;8.48;79.41
21781;BME280;52576;53.614;9.894;2023-05-07T01:55:06;101896.84;;;8.47;79.45
21781;BME280;52576;53.614;9.894;2023-05-07T01:57:10;101895.06;;;8.47;79.42
21781;BME280;52576;53.614;9.894;2023-05-07T01:59:14;101896.84;;;8.47;79.42
21781;BME280;52576;53.614;9.894;2023-05-07T02:01:17;101903.81;;;8.46;79.42
21781;BME280;52576;53.614;9.894;2023-05-07T02:03:21;101907.34;;;8.45;79.37
21781;BME280;52576;53.614;9.894;2023-05-07T02:05:32;101905.63;;;8.44;79.29
21781;BME280;52576;53.614;9.894;2023-05-07T02:07:41;101912.56;;;8.45;79.34
21781;BME280;52576;53.614;9.894;2023-05-07T02:09:45;101909.03;;;8.46;79.26
21781;BME280;52576;53.614;9.894;2023-05-07T02:11:49;101908.19;;;8.46;79.17
21781;BME280;52576;53.614;9.894;2023-05-07T02:13:55;101918.66;;;8.46;79.05
21781;BME280;52576;53.614;9.894;2023-05-07T02:15:58;101924.72;;;8.46;79.02
21781;BME280;52576;53.614;9.894;2023-05-07T02:18:03;101922.09;;;8.46;79.13
21781;BME280;52576;53.614;9.894;2023-05-07T02:20:08;101924.72;;;8.46;78.98
21781;BME280;52576;53.614;9.894;2023-05-07T02:22:16;101922.16;;;8.45;79.00
21781;BME280;52576;53.614;9.894;2023-05-07T02:24:19;101922.16;;;8.45;78.92
21781;BME280;52576;53.614;9.894;2023-05-07T02:26:23;101919.50;;;8.46;79.03
21781;BME280;52576;53.614;9.894;2023-05-07T02:28:27;101938.59;;;8.48;78.82
21781;BME280;52576;53.614;9.894;2023-05-07T02:30:38;101929.88;;;8.48;78.99
21781;BME280;52576;53.614;9.894;2023-05-07T02:32:41;101930.75;;;8.48;78.88
21781;BME280;52576;53.614;9.894;2023-05-07T02:34:45;101926.44;;;8.47;78.97
21781;BME280;52576;53.614;9.894;2023-05-07T02:36:48;101923.81;;;8.47;79.04
21781;BME280;52576;53.614;9.894;2023-05-07T02:38:55;101923.81;;;8.47;79.18
21781;BME280;52576;53.614;9.894;2023-05-07T02:40:59;101925.50;;;8.48;79.06
21781;BME280;52576;53.614;9.894;2023-05-07T02:43:02;101926.31;;;8.50;78.99
21781;BME280;52576;53.614;9.894;2023-05-07T02:45:07;101927.16;;;8.51;79.06
21781;BME280;52576;53.614;9.894;2023-05-07T02:47:14;101928.84;;;8.52;78.95
21781;BME280;52576;53.614;9.894;2023-05-07T02:49:18;101926.31;;;8.50;78.99
21781;BME280;52576;53.614;9.894;2023-05-07T02:51:22;101928.97;;;8.49;79.02
21781;BME280;52576;53.614;9.894;2023-05-07T02:53:29;101930.81;;;8.47;79.47
21781;BME280;52576;53.614;9.894;2023-05-07T02:55:32;101929.09;;;8.46;79.24
21781;BME280;52576;53.614;9.894;2023-05-07T02:57:36;101937.84;;;8.45;79.43
21781;BME280;52576;53.614;9.894;2023-05-07T02:59:41;101934.44;;;8.43;79.40
21781;BME280;52576;53.614;9.894;2023-05-07T03:01:45;101929.22;;;8.43;79.52
21781;BME280;52576;53.614;9.894;2023-05-07T03:03:51;101938.81;;;8.42;79.69
21781;BME280;52576;53.614;9.894;2023-05-07T03:05:54;101936.19;;;8.42;79.59
21781;BME280;52576;53.614;9.894;2023-05-07T03:07:57;101927.50;;;8.42;79.73
21781;BME280;52576;53.614;9.894;2023-05-07T03:10:01;101938.94;;;8.39;79.79
21781;BME280;52576;53.614;9.894;2023-05-07T03:12:04;101938.94;;;8.39;79.71
21781;BME280;52576;53.614;9.894;2023-05-07T03:14:08;101947.63;;;8.40;79.79
21781;BME280;52576;53.614;9.894;2023-05-07T03:16:11;101945.84;;;8.40;79.65
21781;BME280;52576;53.614;9.894;2023-05-07T03:18:14;101940.56;;;8.42;79.56
21781;BME280;52576;53.614;9.894;2023-05-07T03:20:19;101936.19;;;8.42;79.41
21781;BME280;52576;53.614;9.894;2023-05-07T03:22:23;101952.78;;;8.41;79.48
21781;BME280;52576;53.614;9.894;2023-05-07T03:24:26;101942.34;;;8.41;79.47
21781;BME280;52576;53.614;9.894;2023-05-07T03:26:29;101944.16;;;8.39;79.41
21781;BME280;52576;53.614;9.894;2023-05-07T03:28:32;101946.75;;;8.39;79.42
21781;BME280;52576;53.614;9.894;2023-05-07T03:30:39;101948.53;;;8.39;79.47
21781;BME280;52576;53.614;9.894;2023-05-07T03:32:42;101940.75;;;8.37;79.67
21781;BME280;52576;53.614;9.894;2023-05-07T03:34:46;101942.56;;;8.35;79.63
21781;BME280;52576;53.614;9.894;2023-05-07T03:36:51;101940.88;;;8.34;79.76
21781;BME280;52576;53.614;9.894;2023-05-07T03:38:57;101943.47;;;8.34;79.71
21781;BME280;52576;53.614;9.894;2023-05-07T03:41:09;101940.00;;;8.34;79.71
21781;BME280;52576;53.614;9.894;2023-05-07T03:43:12;101933.97;;;8.32;79.88
21781;BME280;52576;53.614;9.894;2023-05-07T03:45:20;101922.63;;;8.33;79.92
21781;BME280;52576;53.614;9.894;2023-05-07T03:47:32;101924.41;;;8.32;79.98
21781;BME280;52576;53.614;9.894;2023-05-07T03:49:36;101933.03;;;8.34;79.97
21781;BME280;52576;53.614;9.894;2023-05-07T03:51:40;101934.78;;;8.34;80.04
21781;BME280;52576;53.614;9.894;2023-05-07T03:53:45;101939.03;;;8.36;79.96
21781;BME280;52576;53.614;9.894;2023-05-07T03:55:48;101945.06;;;8.38;80.00
21781;BME280;52576;53.614;9.894;2023-05-07T03:57:52;101951.94;;;8.41;79.83
21781;BME280;52576;53.614;9.894;2023-05-07T03:59:55;101954.50;;;8.42;79.77
21781;BME280;52576;53.614;9.894;2023-05-07T04:01:58;101950.97;;;8.43;79.62
21781;BME280;52576;53.614;9.894;2023-05-07T04:04:06;101954.44;;;8.44;79.62
21781;BME280;52576;53.614;9.894;2023-05-07T04:06:11;101956.19;;;8.43;79.45
21781;BME280;52576;53.614;9.894;2023-05-07T04:08:18;101947.50;;;8.43;79.23
21781;BME280;52576;53.614;9.894;2023-05-07T04:10:25;101945.75;;;8.43;78.99
21781;BME280;52576;53.614;9.894;2023-05-07T04:12:31;101959.59;;;8.45;78.67
21781;BME280;52576;53.614;9.894;2023-05-07T04:14:34;101956.97;;;8.45;78.58
21781;BME280;52576;53.614;9.894;2023-05-07T04:16:38;101959.53;;;8.47;78.35
21781;BME280;52576;53.614;9.894;2023-05-07T04:18:42;101961.31;;;8.46;78.23
21781;BME280;52576;53.614;9.894;2023-05-07T04:20:46;101963.00;;;8.47;78.15
21781;BME280;52576;53.614;9.894;2023-05-07T04:22:50;101958.69;;;8.46;78.09
21781;BME280;52576;53.614;9.894;2023-05-07T04:24:53;101951.69;;;8.47;78.15
21781;BME280;52576;53.614;9.894;2023-05-07T04:26:58;101954.25;;;8.48;78.29
21781;BME280;52576;53.614;9.894;2023-05-07T04:29:01;101956.81;;;8.50;78.13
21781;BME280;52576;53.614;9.894;2023-05-07T04:31:08;101961.97;;;8.52;78.14
21781;BME280;52576;53.614;9.894;2023-05-07T04:33:13;101964.53;;;8.53;78.16
21781;BME280;52576;53.614;9.894;2023-05-07T04:35:18;101954.88;;;8.55;78.08
21781;BME280;52576;53.614;9.894;2023-05-07T04:37:22;101949.50;;;8.58;77.98
21781;BME280;52576;53.614;9.894;2023-05-07T04:39:25;101954.59;;;8.61;77.99
21781;BME280;52576;53.614;9.894;2023-05-07T04:41:29;101953.63;;;8.64;77.73
21781;BME280;52576;53.614;9.894;2023-05-07T04:43:34;101950.09;;;8.65;77.69
21781;BME280;52576;53.614;9.894;2023-05-07T04:45:37;101946.59;;;8.66;77.91
21781;BME280;52576;53.614;9.894;2023-05-07T04:47:43;101952.66;;;8.66;77.70
21781;BME280;52576;53.614;9.894;2023-05-07T04:49:47;101945.69;;;8.67;77.75
21781;BME280;52576;53.614;9.894;2023-05-07T04:51:51;101953.47;;;8.68;77.70
21781;BME280;52576;53.614;9.894;2023-05-07T04:53:56;101955.22;;;8.68;77.73
21781;BME280;52576;53.614;9.894;2023-05-07T04:56:01;101962.16;;;8.69;77.65
21781;BME280;52576;53.614;9.894;2023-05-07T04:58:13;101969.09;;;8.70;77.43
21781;BME280;52576;53.614;9.894;2023-05-07T05:00:19;101972.59;;;8.69;77.44
21781;BME280;52576;53.614;9.894;2023-05-07T05:02:24;101970.78;;;8.71;77.42
21781;BME280;52576;53.614;9.894;2023-05-07T05:04:28;101975.94;;;8.72;77.35
21781;BME280;52576;53.614;9.894;2023-05-07T05:06:31;101966.28;;;8.74;77.14
21781;BME280;52576;53.614;9.894;2023-05-07T05:08:37;101975.84;;;8.75;76.82
21781;BME280;52576;53.614;9.894;2023-05-07T05:10:40;101974.06;;;8.76;76.61
21781;BME280;52576;53.614;9.894;2023-05-07T05:12:45;101975.88;;;8.74;76.58
21781;BME280;52576;53.614;9.894;2023-05-07T05:14:49;101965.44;;;8.74;76.45
21781;BME280;52576;53.614;9.894;2023-05-07T05:16:54;101972.38;;;8.75;76.35
21781;BME280;52576;53.614;9.894;2023-05-07T05:18:57;101965.31;;;8.77;76.32
21781;BME280;52576;53.614;9.894;2023-05-07T05:21:00;101974.00;;;8.77;76.31
21781;BME280;52576;53.614;9.894;2023-05-07T05:23:05;101974.88;;;8.78;76.32
21781;BME280;52576;53.614;9.894;2023-05-07T05:25:09;101963.50;;;8.79;76.17
21781;BME280;52576;53.614;9.894;2023-05-07T05:27:12;101972.13;;;8.81;76.61
21781;BME280;52576;53.614;9.894;2023-05-07T05:29:15;101977.34;;;8.81;76.02
21781;BME280;52576;53.614;9.894;2023-05-07T05:31:19;101976.34;;;8.83;76.03
21781;BME280;52576;53.614;9.894;2023-05-07T05:33:25;101978.91;;;8.85;76.01
21781;BME280;52576;53.614;9.894;2023-05-07T05:35:36;101981.53;;;8.85;75.91
21781;BME280;52576;53.614;9.894;2023-05-07T05:37:43;101991.97;;;8.85;75.82
21781;BME280;52576;53.614;9.894;2023-05-07T05:39:47;101991.91;;;8.87;75.93
21781;BME280;52576;53.614;9.894;2023-05-07T05:41:50;101990.94;;;8.89;75.92
21781;BME280;52576;53.614;9.894;2023-05-07T05:43:54;101989.25;;;8.88;75.87
21781;BME280;52576;53.614;9.894;2023-05-07T05:45:58;101990.16;;;8.87;75.91
21781;BME280;52576;53.614;9.894;2023-05-07T05:48:03;101999.81;;;8.85;76.01
21781;BME280;52576;53.614;9.894;2023-05-07T05:50:09;102002.38;;;8.87;75.95
21781;BME280;52576;53.614;9.894;2023-05-07T05:52:13;102008.47;;;8.87;76.00
21781;BME280;52576;53.614;9.894;2023-05-07T05:54:16;101997.09;;;8.88;75.94
21781;BME280;52576;53.614;9.894;2023-05-07T05:56:20;102004.94;;;8.88;75.89
21781;BME280;52576;53.614;9.894;2023-05-07T05:58:23;102014.53;;;8.88;76.02
21781;BME280;52576;53.614;9.894;2023-05-07T06:00:32;102004.09;;;8.88;76.13
21781;BME280;52576;53.614;9.894;2023-05-07T06:02:38;102003.13;;;8.90;76.14
21781;BME280;52576;53.614;9.894;2023-05-07T06:04:42;102001.28;;;8.92;76.02
21781;BME280;52576;53.614;9.894;2023-05-07T06:06:51;101997.75;;;8.93;76.06
21781;BME280;52576;53.614;9.894;2023-05-07T06:08:54;102013.34;;;8.96;75.96
21781;BME280;52576;53.614;9.894;2023-05-07T06:11:04;102003.78;;;8.95;75.84
21781;BME280;52576;53.614;9.894;2023-05-07T06:13:10;102009.00;;;8.95;76.09
21781;BME280;52576;53.614;9.894;2023-05-07T06:15:15;102004.69;;;8.94;75.84
21781;BME280;52576;53.614;9.894;2023-05-07T06:17:19;102014.31;;;8.94;75.77
21781;BME280;52576;53.614;9.894;2023-05-07T06:19:24;102016.00;;;8.95;75.87
21781;BME280;52576;53.614;9.894;2023-05-07T06:21:29;102019.53;;;8.94;75.75
21781;BME280;52576;53.614;9.894;2023-05-07T06:23:33;102016.91;;;8.94;75.76
21781;BME280;52576;53.614;9.894;2023-05-07T06:25:37;102023.91;;;8.93;75.93
21781;BME280;52576;53.614;9.894;2023-05-07T06:27:41;102020.38;;;8.94;75.87
21781;BME280;52576;53.614;9.894;2023-05-07T06:29:44;102022.09;;;8.95;75.81
21781;BME280;52576;53.614;9.894;2023-05-07T06:31:49;102018.50;;;8.98;75.72
21781;BME280;52576;53.614;9.894;2023-05-07T06:33:53;102020.16;;;9.00;75.71
21781;BME280;52576;53.614;9.894;2023-05-07T06:36:00;102020.03;;;9.03;75.58
21781;BME280;52576;53.614;9.894;2023-05-07T06:38:03;102018.19;;;9.05;75.61
21781;BME280;52576;53.614;9.894;2023-05-07T06:40:09;102017.16;;;9.09;75.38
21781;BME280;52576;53.614;9.894;2023-05-07T06:42:14;102010.88;;;9.13;75.49
21781;BME280;52576;53.614;9.894;2023-05-07T06:44:21;102015.06;;;9.17;75.35
21781;BME280;52576;53.614;9.894;2023-05-07T06:46:34;102008.00;;;9.19;75.12
21781;BME280;52576;53.614;9.894;2023-05-07T06:48:38;102014.03;;;9.22;75.30
21781;BME280;52576;53.614;9.894;2023-05-07T06:50:42;102006.19;;;9.22;75.08
21781;BME280;52576;53.614;9.894;2023-05-07T06:52:45;102015.59;;;9.26;75.27
21781;BME280;52576;53.614;9.894;2023-05-07T06:54:49;102011.97;;;9.30;75.28
21781;BME280;52576;53.614;9.894;2023-05-07T06:56:56;102017.75;;;9.36;75.23
21781;BME280;52576;53.614;9.894;2023-05-07T06:59:02;102024.50;;;9.42;75.04
21781;BME280;52576;53.614;9.894;2023-05-07T07:01:09;102022.63;;;9.45;74.85
21781;BME280;52576;53.614;9.894;2023-05-07T07:03:13;102018.25;;;9.46;74.56
21781;BME280;52576;53.614;9.894;2023-05-07T07:05:17;102019.03;;;9.48;74.66
21781;BME280;52576;53.614;9.894;2023-05-07T07:07:21;102028.56;;;9.49;74.44
21781;BME280;52576;53.614;9.894;2023-05-07T07:09:25;102020.53;;;9.53;74.43
21781;BME280;52576;53.614;9.894;2023-05-07T07:11:29;102017.78;;;9.57;74.19
21781;BME280;52576;53.614;9.894;2023-05-07T07:13:34;102014.03;;;9.62;74.04
21781;BME280;52576;53.614;9.894;2023-05-07T07:15:37;102021.69;;;9.67;73.85
21781;BME280;52576;53.614;9.894;2023-05-07T07:17:41;102017.06;;;9.73;73.79
21781;BME280;52576;53.614;9.894;2023-05-07T07:19:44;102023.88;;;9.77;73.53
21781;BME280;52576;53.614;9.894;2023-05-07T07:21:47;102026.34;;;9.80;73.39
21781;BME280;52576;53.614;9.894;2023-05-07T07:23:51;102016.53;;;9.85;73.26
21781;BME280;52576;53.614;9.894;2023-05-07T07:25:55;102020.69;;;9.90;73.03
21781;BME280;52576;53.614;9.894;2023-05-07T07:28:01;102009.16;;;9.94;72.83
21781;BME280;52576;53.614;9.894;2023-05-07T07:30:07;102011.59;;;9.98;73.00
21781;BME280;52576;53.614;9.894;2023-05-07T07:32:13;102009.63;;;10.03;72.83
21781;BME280;52576;53.614;9.894;2023-05-07T07:34:17;102015.44;;;10.10;72.68
21781;BME280;52576;53.614;9.894;2023-05-07T07:36:22;102012.59;;;10.14;72.56
21781;BME280;52576;53.614;9.894;2023-05-07T07:38:40;102010.69;;;10.18;72.46
21781;BME280;52576;53.614;9.894;2023-05-07T07:40:43;102009.66;;;10.22;72.29
21781;BME280;52576;53.614;9.894;2023-05-07T07:42:48;102015.56;;;10.27;72.17
21781;BME280;52576;53.614;9.894;2023-05-07T07:44:51;102014.50;;;10.31;71.80
21781;BME280;52576;53.614;9.894;2023-05-07T07:46:58;102013.50;;;10.34;71.56
21781;BME280;52576;53.614;9.894;2023-05-07T07:49:03;102021.16;;;10.38;71.44
21781;BME280;52576;53.614;9.894;2023-05-07T07:51:10;102020.13;;;10.41;71.25
21781;BME280;52576;53.614;9.894;2023-05-07T07:53:16;102025.97;;;10.47;71.16
21781;BME280;52576;53.614;9.894;2023-05-07T07:55:23;102029.38;;;10.49;70.81
21781;BME280;52576;53.614;9.894;2023-05-07T07:57:28;102025.81;;;10.50;70.92
21781;BME280;52576;53.614;9.894;2023-05-07T07:59:32;102020.44;;;10.53;71.04
21781;BME280;52576;53.614;9.894;2023-05-07T08:01:36;102015.91;;;10.57;70.94
21781;BME280;52576;53.614;9.894;2023-05-07T08:03:41;102029.72;;;10.61;70.88
21781;BME280;52576;53.614;9.894;2023-05-07T08:05:44;102030.50;;;10.63;71.15
21781;BME280;52576;53.614;9.894;2023-05-07T08:07:48;102030.34;;;10.66;70.71
21781;BME280;52576;53.614;9.894;2023-05-07T08:09:57;102033.59;;;10.71;70.51
21781;BME280;52576;53.614;9.894;2023-05-07T08:12:01;102032.47;;;10.76;70.38
21781;BME280;52576;53.614;9.894;2023-05-07T08:14:07;102029.75;;;10.78;69.99
21781;BME280;52576;53.614;9.894;2023-05-07T08:16:10;102032.25;;;10.81;69.80
21781;BME280;52576;53.614;9.894;2023-05-07T08:18:14;102029.63;;;10.81;69.69
21781;BME280;52576;53.614;9.894;2023-05-07T08:20:20;102039.97;;;10.84;69.36
21781;BME280;52576;53.614;9.894;2023-05-07T08:22:23;102041.53;;;10.88;69.37
21781;BME280;52576;53.614;9.894;2023-05-07T08:24:27;102044.00;;;10.91;69.30
21781;BME280;52576;53.614;9.894;2023-05-07T08:26:30;102044.75;;;10.93;69.36
21781;BME280;52576;53.614;9.894;2023-05-07T08:28:33;102041.22;;;10.94;69.37
21781;BME280;52576;53.614;9.894;2023-05-07T08:30:36;102041.22;;;10.94;69.37
21781;BME280;52576;53.614;9.894;2023-05-07T08:32:40;102044.63;;;10.96;69.45
21781;BME280;52576;53.614;9.894;2023-05-07T08:34:44;102038.38;;;10.99;69.06
21781;BME280;52576;53.614;9.894;2023-05-07T08:36:49;102047.94;;;11.00;69.32
21781;BME280;52576;53.614;9.894;2023-05-07T08:38:55;102049.72;;;10.99;69.04
21781;BME280;52576;53.614;9.894;2023-05-07T08:40:59;102044.47;;;10.99;69.12
21781;BME280;52576;53.614;9.894;2023-05-07T08:43:05;102047.09;;;10.99;69.14
21781;BME280;52576;53.614;9.894;2023-05-07T08:45:11;102050.63;;;10.98;68.99
21781;BME280;52576;53.614;9.894;2023-05-07T08:47:18;102054.19;;;10.97;69.01
21781;BME280;52576;53.614;9.894;2023-05-07T08:49:24;102058.44;;;11.00;69.18
21781;BME280;52576;53.614;9.894;2023-05-07T08:51:28;102068.72;;;11.04;69.01
21781;BME280;52576;53.614;9.894;2023-05-07T08:53:33;102071.19;;;11.07;68.91
21781;BME280;52576;53.614;9.894;2023-05-07T08:55:37;102069.28;;;11.11;69.22
21781;BME280;52576;53.614;9.894;2023-05-07T08:57:40;102067.34;;;11.14;69.11
21781;BME280;52576;53.614;9.894;2023-05-07T08:59:44;102061.00;;;11.18;68.87
21781;BME280;52576;53.614;9.894;2023-05-07T09:01:48;102065.41;;;11.18;68.77
21781;BME280;52576;53.614;9.894;2023-05-07T09:03:51;102067.19;;;11.17;68.65
21781;BME280;52576;53.614;9.894;2023-05-07T09:05:57;102063.75;;;11.17;68.74
21781;BME280;52576;53.614;9.894;2023-05-07T09:08:02;102069.66;;;11.20;68.56
21781;BME280;52576;53.614;9.894;2023-05-07T09:10:08;102062.72;;;11.19;68.46
21781;BME280;52576;53.614;9.894;2023-05-07T09:12:13;102069.66;;;11.20;68.58
21781;BME280;52576;53.614;9.894;2023-05-07T09:14:17;102066.13;;;11.21;68.52
21781;BME280;52576;53.614;9.894;2023-05-07T09:16:21;102070.38;;;11.24;68.56
21781;BME280;52576;53.614;9.894;2023-05-07T09:18:25;102072.00;;;11.27;68.50
21781;BME280;52576;53.614;9.894;2023-05-07T09:20:30;102076.94;;;11.33;68.20
21781;BME280;52576;53.614;9.894;2023-05-07T09:22:36;102080.19;;;11.38;68.03
21781;BME280;52576;53.614;9.894;2023-05-07T09:24:47;102076.50;;;11.42;67.83
21781;BME280;52576;53.614;9.894;2023-05-07T09:26:54;102080.50;;;11.49;67.58
21781;BME280;52576;53.614;9.894;2023-05-07T09:28:58;102082.69;;;11.58;67.30
21781;BME280;52576;53.614;9.894;2023-05-07T09:31:01;102088.34;;;11.68;66.86
21781;BME280;52576;53.614;9.894;2023-05-07T09:33:04;102081.78;;;11.76;66.27
21781;BME280;52576;53.614;9.894;2023-05-07T09:35:14;102078.84;;;11.82;66.55
21781;BME280;52576;53.614;9.894;2023-05-07T09:37:21;102076.84;;;11.87;66.46
21781;BME280;52576;53.614;9.894;2023-05-07T09:39:25;102083.47;;;11.95;66.41
21781;BME280;52576;53.614;9.894;2023-05-07T09:41:30;102074.47;;;11.99;66.19
21781;BME280;52576;53.614;9.894;2023-05-07T09:43:44;102089.16;;;12.03;66.03
21781;BME280;52576;53.614;9.894;2023-05-07T09:45:49;102080.19;;;12.07;66.01
21781;BME280;52576;53.614;9.894;2023-05-07T09:47:57;102073.09;;;12.09;65.51
21781;BME280;52576;53.614;9.894;2023-05-07T09:50:06;102079.88;;;12.13;65.30
21781;BME280;52576;53.614;9.894;2023-05-07T09:52:13;102080.34;;;12.21;65.47
21781;BME280;52576;53.614;9.894;2023-05-07T09:54:22;102080.91;;;12.26;64.86
21781;BME280;52576;53.614;9.894;2023-05-07T09:56:29;102081.69;;;12.28;64.74
21781;BME280;52576;53.614;9.894;2023-05-07T09:58:36;102084.31;;;12.28;64.39
21781;BME280;52576;53.614;9.894;2023-05-07T10:00:42;102083.56;;;12.26;64.40
21781;BME280;52576;53.614;9.894;2023-05-07T10:02:51;102087.78;;;12.29;64.45
21781;BME280;52576;53.614;9.894;2023-05-07T10:05:08;102095.44;;;12.33;64.10
21781;BME280;52576;53.614;9.894;2023-05-07T10:07:13;102090.03;;;12.36;64.28
21781;BME280;52576;53.614;9.894;2023-05-07T10:09:17;102090.72;;;12.40;64.35
21781;BME280;52576;53.614;9.894;2023-05-07T10:11:21;102097.69;;;12.41;64.09
21781;BME280;52576;53.614;9.894;2023-05-07T10:13:25;102091.56;;;12.40;63.65
21781;BME280;52576;53.614;9.894;2023-05-07T10:15:32;102097.91;;;12.36;63.84
21781;BME280;52576;53.614;9.894;2023-05-07T10:17:39;102091.19;;;12.31;64.46
21781;BME280;52576;53.614;9.894;2023-05-07T10:19:44;102091.19;;;12.31;64.42
21781;BME280;52576;53.614;9.894;2023-05-07T10:21:52;102088.34;;;12.35;64.04
21781;BME280;52576;53.614;9.894;2023-05-07T10:23:59;102090.97;;;12.35;63.96
21781;BME280;52576;53.614;9.894;2023-05-07T10:26:06;102081.38;;;12.34;63.62
21781;BME280;52576;53.614;9.894;2023-05-07T10:28:12;102086.78;;;12.31;63.61
21781;BME280;52576;53.614;9.894;2023-05-07T10:30:29;102085.09;;;12.30;63.70
21781;BME280;52576;53.614;9.894;2023-05-07T10:32:43;102083.56;;;12.26;63.72
21781;BME280;52576;53.614;9.894;2023-05-07T10:34:59;102085.59;;;12.21;63.79
21781;BME280;52576;53.614;9.894;2023-05-07T10:37:03;102087.63;;;12.16;64.08
21781;BME280;52576;53.614;9.894;2023-05-07T10:39:07;102095.66;;;12.13;64.04
21781;BME280;52576;53.614;9.894;2023-05-07T10:41:11;102093.19;;;12.10;63.95
21781;BME280;52576;53.614;9.894;2023-05-07T10:43:17;102084.69;;;12.05;63.84
21781;BME280;52576;53.614;9.894;2023-05-07T10:45:26;102085.16;;;11.96;64.43
21781;BME280;52576;53.614;9.894;2023-05-07T10:47:32;102088.88;;;11.92;64.32
21781;BME280;52576;53.614;9.894;2023-05-07T10:52:20;102088.88;;;11.92;65.07
21781;BME280;52576;53.614;9.894;2023-05-07T10:54:37;102088.53;;;11.98;64.81
21781;BME280;52576;53.614;9.894;2023-05-07T10:56:45;102093.66;;;12.01;64.31
21781;BME280;52576;53.614;9.894;2023-05-07T11:01:52;102085.13;;;12.13;64.39
21781;BME280;52576;53.614;9.894;2023-05-07T11:04:15;102083.72;;;12.23;63.89
21781;BME280;52576;53.614;9.894;2023-05-07T11:06:31;102084.00;;;12.34;63.62